VGHS Airport Information

Runway Information
Airport Frequencies
Airport Navaids
Airport Weather Information & NOTAM
ADDS - METARS form results

(1941 UTC 27 May 2022)
Data provider http://aviationweather.gov/metar/data/
 
METAR text: VGHS 271930Z 17007KT 3500 HZ SCT012 BKN100 28/23 Q1000 NOSIG
Conditions at: VGHS (DHAKA , BD) observed 1930 UTC 27 May 2022
Temperature: 28.0°C (82°F)
Dewpoint: 23.0°C (73°F) [RH = 74%]
Pressure (altimeter): 29.53 inches Hg (1000.0 mb)
Winds: from the S (170 degrees) at 8 MPH (7 knots; 3.6 m/s)
Visibility: 2.17 miles (3.49 km)
Ceiling: 10000 feet AGL
Clouds: scattered clouds at 1200 feet AGL
broken clouds at 10000 feet AGL
Weather: HZ  (haze)

METAR text: VGHS 271900Z 17006KT 3500 HZ SCT012 BKN100 28/23 Q1001 NOSIG
Conditions at: VGHS (DHAKA , BD) observed 1900 UTC 27 May 2022
Temperature: 28.0°C (82°F)
Dewpoint: 23.0°C (73°F) [RH = 74%]
Pressure (altimeter): 29.56 inches Hg (1001.0 mb)
Winds: from the S (170 degrees) at 7 MPH (6 knots; 3.1 m/s)
Visibility: 2.17 miles (3.49 km)
Ceiling: 10000 feet AGL
Clouds: scattered clouds at 1200 feet AGL
broken clouds at 10000 feet AGL
Weather: HZ  (haze)

Forecast for: VGHS (DHAKA , BD)
Text: TAF VGHS 271700Z 2718/2824 16008KT 3500 HZ SCT012 BKN100
Forecast period: 1800 UTC 27 May 2022 to 0400 UTC 28 May 2022
Forecast type: FROM: standard forecast or significant change
Winds: from the SSE (160 degrees) at 9 MPH (8 knots; 4.1 m/s)
Visibility: 2.17 miles (3.49 km)
Ceiling: 10000 feet AGL
Clouds: scattered clouds at 1200 feet AGL
broken clouds at 10000 feet AGL
Weather: HZ  (haze)
Text: BECMG 2804/2806 09010KT 4000 HZ SCT015 BKN100
Forecast period: 0400 to 2000 UTC 28 May 2022
Forecast type: BECOMING: Conditions expected to become as follows by 0600 UTC 28 May 2022
Winds: from the E (90 degrees) at 12 MPH (10 knots; 5.1 m/s)
Visibility: 2.49 miles (4.01 km)
Ceiling: 10000 feet AGL
Clouds: scattered clouds at 1500 feet AGL
broken clouds at 10000 feet AGL
Weather: HZ  (haze)
Text: TEMPO 2806/2818 28025G35KT 2000 RA/TSRA BKN008 FEW025CB OVC090
Forecast period: 0600 to 1800 UTC 28 May 2022
Forecast type: TEMPORARY: The following changes expected for less than half the time period
Winds: from the W (280 degrees) at 29 MPH (25 knots; 12.9 m/s)
gusting to 40 MPH (35 knots; 18.0 m/s)
Visibility: 1.24 miles (2.00 km)
Ceiling: 800 feet AGL
Clouds: broken clouds at 800 feet AGL
few clouds at 2500 feet AGL
overcast cloud deck at 9000 feet AGL
Weather: TSRA RA  (rain associated with thunderstorm(s), moderate rain)
Text: BECMG 2820/2822 16008KT 3500 HZ SCT012 BKN100
Forecast period: 2000 UTC 28 May 2022 to 0000 UTC 29 May 2022
Forecast type: BECOMING: Conditions expected to become as follows by 2200 UTC 28 May 2022
Winds: from the SSE (160 degrees) at 9 MPH (8 knots; 4.1 m/s)
Visibility: 2.17 miles (3.49 km)
Ceiling: 10000 feet AGL
Clouds: scattered clouds at 1200 feet AGL
broken clouds at 10000 feet AGL
Weather: HZ  (haze)